Portada
METAR-TAF:

METAR-TAF

Aeroports :

Benarés, Índia

latitud: 25-27N, longitud: 082-52E, altitud: 81 m

Observació

L'informe es va fer fa 45 minuts, a les 19:30 UTC
Vent 6 kt del Oest
Temperatura 22°C
Humitat 57%
Pressió 1011 hPa
Visibilitat: 3500 m
calitja

METAR: VEBN 221930Z 28006KT 3500 HZ NSC 22/13 Q1011 NOSIG

Hora: 01:45 (20:15 UTC)

Pronòstic

L'informe es va fer fa 3 hores i 15 minuts, a les 17:00 UTC
Pronòstic vàlid del 22 a les 18 UTC al 23 a les 24 UTC
Vent 5 kt del Sud-Oest
Visibilitat: 3000 m
calitja
Evolucionant progressivament
l' 23 a les 00 UTC al 23 a les 02 UTC
Vent kt del Nord
Visibilitat: 1500 m
calitja, boirina
Evolucionant progressivament
l' 23 a les 07 UTC al 23 a les 09 UTC
Vent 8 kt del Oest/Nord-Oest
Visibilitat: 5000 m
calitja

TAF: VEBN 221700Z 2218/2324 22005KT 3000 HZ NSC BECMG 2300/2302 00000KT 1500 HZ BR BECMG 2307/2309 29008KT 5000 HZ

Observacions i pronòstics meteorològics de més de 4000 aeroports (METAR i TAF).

Les estacions disponibles són els punts grocs i vermells al mapa.

Posi el ratolí al punt desitjat per veure el nom de l'estació.

Feu clic per veure les observacions i els pronòstics meteorològics.

Per canviar el mapa: feu clic els botons verds amb una creu de color negre per apropar; al botó verd amb un guió per allunyar la imatge; o en les fletxes verdes per a mapes adjacents.


METAR-TAF: